createdAt,value
2022-11-20T00:03:19.343Z,4.90
2022-11-20T00:08:23.019Z,5.05
2022-11-20T00:13:26.666Z,4.77
2022-11-20T00:18:36.604Z,5.28
2022-11-20T00:23:40.262Z,4.39
2022-11-20T00:28:46.258Z,5.22
2022-11-20T00:33:52.983Z,5.31
2022-11-20T00:38:59.219Z,4.99
2022-11-20T00:44:02.926Z,4.77
2022-11-20T00:49:06.386Z,4.52
2022-11-20T00:54:10.062Z,5.07
2022-11-20T00:59:13.794Z,4.82
2022-11-20T01:04:17.386Z,5.01
2022-11-20T01:09:21.232Z,3.87
2022-11-20T01:14:25.054Z,3.68
2022-11-20T01:19:28.653Z,4.97
2022-11-20T01:24:32.367Z,4.08
2022-11-20T01:29:36.053Z,3.33
2022-11-20T01:34:49.790Z,4.58
2022-11-20T01:39:53.309Z,4.21
2022-11-20T01:45:01.585Z,5.22
2022-11-20T01:50:13.414Z,5.17
2022-11-20T01:55:21.583Z,5.10
2022-11-20T02:00:25.247Z,5.07
2022-11-20T02:05:31.735Z,4.97
2022-11-20T02:10:35.566Z,3.51
2022-11-20T02:15:39.400Z,4.64
2022-11-20T02:20:46.146Z,4.38
2022-11-20T02:25:50.782Z,4.03
2022-11-20T02:30:54.465Z,3.98
2022-11-20T02:35:58.168Z,4.45
2022-11-20T02:41:01.660Z,4.48
2022-11-20T02:46:05.303Z,3.36
2022-11-20T02:51:08.745Z,4.07
2022-11-20T02:56:12.527Z,4.07
2022-11-20T03:01:16.366Z,4.11
2022-11-20T03:06:20.337Z,5.00
2022-11-20T03:11:23.997Z,5.05
2022-11-20T03:16:27.664Z,5.01
2022-11-20T03:21:31.557Z,4.93
2022-11-20T03:26:35.414Z,4.62
2022-11-20T03:31:44.331Z,5.19
2022-11-20T03:36:47.925Z,5.11
2022-11-20T03:41:51.934Z,4.85
2022-11-20T03:46:55.620Z,4.97
2022-11-20T03:51:59.267Z,5.11
2022-11-20T03:57:03.055Z,4.74
2022-11-20T04:02:07.054Z,5.31
2022-11-20T04:07:10.719Z,4.04
2022-11-20T04:12:14.348Z,4.62
2022-11-20T04:17:18.455Z,5.73
2022-11-20T04:22:21.982Z,5.27
2022-11-20T04:27:25.646Z,5.57
2022-11-20T04:32:29.468Z,5.53
2022-11-20T04:37:33.143Z,4.76
2022-11-20T04:42:36.826Z,5.82
2022-11-20T04:47:40.326Z,5.56
2022-11-20T04:52:43.855Z,5.95
2022-11-20T04:57:47.466Z,5.76
2022-11-20T05:02:51.092Z,4.77
2022-11-20T05:07:54.910Z,5.55
2022-11-20T05:12:59.109Z,4.51
2022-11-20T05:18:02.737Z,4.54
2022-11-20T05:23:06.514Z,5.48
2022-11-20T05:28:10.246Z,5.83
2022-11-20T05:33:13.794Z,5.93
2022-11-20T05:38:22.832Z,5.60
2022-11-20T05:43:26.706Z,5.94
2022-11-20T05:48:31.081Z,6.10
2022-11-20T05:53:36.070Z,6.24
2022-11-20T05:58:40.442Z,5.76
2022-11-20T06:03:47.959Z,6.55
2022-11-20T06:08:51.518Z,5.30
2022-11-20T06:13:55.100Z,6.52
2022-11-20T06:18:58.567Z,5.41
2022-11-20T06:24:02.201Z,6.19
2022-11-20T06:29:15.686Z,6.63
2022-11-20T06:34:19.293Z,5.67
2022-11-20T06:39:22.946Z,6.10
2022-11-20T06:44:26.614Z,5.53
2022-11-20T06:49:30.140Z,5.93
2022-11-20T06:54:39.601Z,5.63
2022-11-20T06:59:43.070Z,6.53
2022-11-20T07:04:46.690Z,6.65
2022-11-20T07:09:50.218Z,5.91
2022-11-20T07:14:53.591Z,6.38
2022-11-20T07:19:57.073Z,5.96
2022-11-20T07:25:00.497Z,6.22
2022-11-20T07:30:05.313Z,6.77
2022-11-20T07:35:09.081Z,6.73
2022-11-20T07:40:13.910Z,5.47
2022-11-20T07:45:25.894Z,6.13
2022-11-20T07:50:29.482Z,7.18
2022-11-20T07:55:34.128Z,6.58
2022-11-20T08:00:37.539Z,6.84
2022-11-20T08:05:41.772Z,6.71
2022-11-20T08:10:45.133Z,6.42
2022-11-20T08:15:52.718Z,6.91
2022-11-20T08:20:56.321Z,6.43
2022-11-20T08:26:00.152Z,6.17
2022-11-20T08:31:04.937Z,6.03
2022-11-20T08:36:10.136Z,6.03
2022-11-20T08:41:25.679Z,5.24
2022-11-20T08:46:40.039Z,6.38
2022-11-20T08:51:44.258Z,5.10
2022-11-20T08:56:47.648Z,5.32
2022-11-20T09:01:51.110Z,6.41
2022-11-20T09:06:54.505Z,4.99
2022-11-20T09:11:57.863Z,6.39
2022-11-20T09:17:09.385Z,6.53
2022-11-20T09:22:12.955Z,6.95
2022-11-20T09:27:24.512Z,7.00
2022-11-20T09:32:27.942Z,7.02
2022-11-20T09:37:37.630Z,6.90
2022-11-20T09:42:48.575Z,6.96
2022-11-20T09:48:16.972Z,6.38
2022-11-20T09:53:56.001Z,6.60
2022-11-20T09:59:08.156Z,7.13
2022-11-20T10:04:20.028Z,7.34
2022-11-20T10:09:38.754Z,7.31
2022-11-20T10:15:05.894Z,7.33
2022-11-20T10:20:28.041Z,7.17
2022-11-20T10:25:48.169Z,7.09
2022-11-20T10:31:01.819Z,6.95
2022-11-20T10:36:29.876Z,7.17
2022-11-20T10:41:44.008Z,6.68
2022-11-20T10:46:47.646Z,6.46
2022-11-20T10:52:20.029Z,7.35
2022-11-20T10:57:33.506Z,7.48
2022-11-20T11:02:53.614Z,7.85
2022-11-20T11:07:59.702Z,7.68
2022-11-20T11:13:03.393Z,7.77
2022-11-20T11:18:24.767Z,7.42
2022-11-20T11:23:42.761Z,7.74
2022-11-20T11:29:05.328Z,7.24
2022-11-20T11:34:19.183Z,8.15
2022-11-20T11:39:23.516Z,7.10
2022-11-20T11:44:52.475Z,7.40
2022-11-20T11:50:11.189Z,7.87
2022-11-20T11:55:25.437Z,7.01
2022-11-20T12:00:29.859Z,7.77
2022-11-20T12:05:53.119Z,7.37
2022-11-20T12:10:59.529Z,8.05
2022-11-20T12:16:04.386Z,7.71
2022-11-20T12:21:19.495Z,8.53
2022-11-20T12:26:56.821Z,8.34
2022-11-20T12:32:28.053Z,8.85
2022-11-20T12:37:52.094Z,8.64
2022-11-20T12:43:39.888Z,8.07
2022-11-20T12:48:56.793Z,7.40
2022-11-20T12:54:00.481Z,8.23
2022-11-20T12:59:22.581Z,7.91
2022-11-20T13:04:38.323Z,7.99
2022-11-20T13:09:46.714Z,7.64
2022-11-20T13:15:27.845Z,8.62
2022-11-20T13:20:33.197Z,8.09
2022-11-20T13:25:42.149Z,8.52
2022-11-20T13:30:54.042Z,7.06
2022-11-20T13:36:01.558Z,8.27
2022-11-20T13:41:28.871Z,8.07
2022-11-20T13:46:49.141Z,7.87
2022-11-20T13:51:58.552Z,7.99
2022-11-20T13:57:24.019Z,7.79
2022-11-20T14:02:30.368Z,7.62
2022-11-20T14:07:39.135Z,7.55
2022-11-20T14:12:42.845Z,6.83
2022-11-20T14:17:46.260Z,7.41
2022-11-20T14:22:54.629Z,6.72
2022-11-20T14:28:00.547Z,7.19
2022-11-20T14:33:06.152Z,7.19
2022-11-20T14:38:13.817Z,6.58
2022-11-20T14:43:22.367Z,6.87
2022-11-20T14:48:47.766Z,6.24
2022-11-20T14:53:50.450Z,7.22
2022-11-20T14:58:59.781Z,6.97
2022-11-20T15:04:11.619Z,7.10
2022-11-20T15:09:16.634Z,5.95
2022-11-20T15:14:19.376Z,6.23
2022-11-20T15:19:27.662Z,5.55
2022-11-20T15:24:37.277Z,4.61
2022-11-20T15:29:40.004Z,6.16
2022-11-20T15:34:43.007Z,5.09
2022-11-20T15:39:45.730Z,4.32
2022-11-20T15:44:48.352Z,5.65
2022-11-20T15:49:51.022Z,5.76
2022-11-20T15:54:53.671Z,5.62
2022-11-20T15:59:56.563Z,4.65
2022-11-20T16:04:59.215Z,4.74
2022-11-20T16:10:05.566Z,5.71
2022-11-20T16:15:29.397Z,5.57
2022-11-20T16:20:32.156Z,5.48
2022-11-20T16:25:35.346Z,5.56
2022-11-20T16:30:38.106Z,5.12
2022-11-20T16:35:40.790Z,5.13
2022-11-20T16:40:43.526Z,5.59
2022-11-20T16:45:46.586Z,5.91
2022-11-20T16:50:54.381Z,5.63
2022-11-20T16:55:57.309Z,5.46
2022-11-20T17:01:06.855Z,5.36
2022-11-20T17:06:18.056Z,5.54
2022-11-20T17:11:20.991Z,4.89
2022-11-20T17:16:25.402Z,5.54
2022-11-20T17:21:30.467Z,5.35
2022-11-20T17:26:33.560Z,5.65
2022-11-20T17:31:37.064Z,5.90
2022-11-20T17:36:46.157Z,5.63
2022-11-20T17:42:08.827Z,5.03
2022-11-20T17:47:11.644Z,4.49
2022-11-20T17:52:14.336Z,3.90
2022-11-20T17:57:39.414Z,4.61
2022-11-20T18:02:42.106Z,3.29
2022-11-20T18:07:48.719Z,3.20
2022-11-20T18:12:51.685Z,4.16
2022-11-20T18:17:54.313Z,3.44
2022-11-20T18:22:57.786Z,4.05
2022-11-20T18:28:00.429Z,3.38
2022-11-20T18:33:03.159Z,3.53
2022-11-20T18:38:05.967Z,3.38
2022-11-20T18:43:30.489Z,3.58
2022-11-20T18:48:33.388Z,2.96
2022-11-20T18:53:36.957Z,2.54
2022-11-20T18:58:41.536Z,3.05
2022-11-20T19:03:44.867Z,1.97
2022-11-20T19:08:57.759Z,2.11
2022-11-20T19:14:00.721Z,1.27
2022-11-20T19:19:05.716Z,0.43
2022-11-20T19:24:13.526Z,1.93
2022-11-20T19:29:17.605Z,1.92
2022-11-20T19:34:30.281Z,1.86
2022-11-20T19:39:32.970Z,0.79
2022-11-20T19:44:36.210Z,1.36
2022-11-20T19:49:43.732Z,1.37
2022-11-20T19:54:46.366Z,0.87
2022-11-20T19:59:49.171Z,0.77
2022-11-20T20:04:51.822Z,1.24
2022-11-20T20:09:54.534Z,1.41
2022-11-20T20:14:57.303Z,0.75
2022-11-20T20:19:59.930Z,0.31
2022-11-20T20:25:02.541Z,0.89
2022-11-20T20:30:06.763Z,0.93
2022-11-20T20:35:09.903Z,1.12
2022-11-20T20:40:15.360Z,0.94
2022-11-20T20:45:18.999Z,0.52
2022-11-20T20:50:23.989Z,1.11
2022-11-20T20:55:26.636Z,0.76
2022-11-20T21:00:29.428Z,0.75
2022-11-20T21:05:32.054Z,0.54
2022-11-20T21:10:35.722Z,-0.07
2022-11-20T21:15:41.937Z,1.46
2022-11-20T21:21:04.415Z,0.88
2022-11-20T21:26:08.771Z,1.15
2022-11-20T21:31:19.757Z,1.12
2022-11-20T21:36:25.596Z,2.08
2022-11-20T21:41:31.521Z,2.63
2022-11-20T21:46:35.855Z,2.52
2022-11-20T21:51:38.646Z,2.56
2022-11-20T21:56:41.477Z,1.81
2022-11-20T22:01:44.146Z,3.06
2022-11-20T22:06:46.824Z,3.61
2022-11-20T22:11:49.510Z,3.69
2022-11-20T22:16:54.177Z,3.74
2022-11-20T23:20:37.166Z,3.62
2022-11-20T23:25:40.610Z,2.54
2022-11-20T23:30:47.989Z,1.38
2022-11-20T23:35:52.242Z,2.58
2022-11-20T23:40:55.905Z,2.69
2022-11-20T23:46:01.048Z,3.31
2022-11-20T23:51:06.913Z,3.60
2022-11-20T23:56:12.229Z,3.30
